createdAt,value
2023-03-22T00:03:38.555Z,12.13
2023-03-22T00:08:40.350Z,12.25
2023-03-22T00:13:41.790Z,12.36
2023-03-22T00:18:43.298Z,12.59
2023-03-22T00:23:45.487Z,12.66
2023-03-22T00:28:46.991Z,12.59
2023-03-22T00:33:49.199Z,12.69
2023-03-22T00:38:50.753Z,12.71
2023-03-22T00:43:52.436Z,12.66
2023-03-22T00:48:54.054Z,12.70
2023-03-22T00:53:56.726Z,12.72
2023-03-22T00:58:58.204Z,12.72
2023-03-22T01:03:59.919Z,12.77
2023-03-22T01:09:01.791Z,12.66
2023-03-22T01:14:03.316Z,12.65
2023-03-22T01:19:04.791Z,12.54
2023-03-22T01:24:06.543Z,12.56
2023-03-22T01:29:08.888Z,12.60
2023-03-22T01:34:10.368Z,12.58
2023-03-22T01:39:12.034Z,12.48
2023-03-22T01:44:18.186Z,12.41
2023-03-22T01:49:25.233Z,12.35
2023-03-22T01:54:42.783Z,12.35
2023-03-22T01:59:59.898Z,12.21
2023-03-22T02:05:35.751Z,11.98
2023-03-22T02:10:37.709Z,11.86
2023-03-22T02:15:57.863Z,11.60
2023-03-22T02:21:31.538Z,11.42
2023-03-22T02:27:08.580Z,11.39
2023-03-22T02:32:23.509Z,11.34
2023-03-22T02:37:41.821Z,11.27
2023-03-22T02:43:12.743Z,11.27
2023-03-22T02:48:31.355Z,11.24
2023-03-22T02:53:41.749Z,11.08
2023-03-22T02:58:46.888Z,10.93
2023-03-22T03:03:50.609Z,10.99
2023-03-22T03:08:53.989Z,10.98
2023-03-22T03:13:55.542Z,11.01
2023-03-22T03:19:03.525Z,10.88
2023-03-22T03:24:25.916Z,10.65
2023-03-22T03:29:27.287Z,10.61
2023-03-22T03:34:44.432Z,10.59
2023-03-22T03:39:54.594Z,10.40
2023-03-22T03:44:56.349Z,10.33
2023-03-22T03:49:57.998Z,10.33
2023-03-22T03:54:59.530Z,10.24
2023-03-22T04:00:06.968Z,10.03
2023-03-22T04:05:46.977Z,10.03
2023-03-22T04:10:50.387Z,10.07
2023-03-22T04:15:53.277Z,9.98
2023-03-22T04:20:55.224Z,9.97
2023-03-22T04:25:57.494Z,9.92
2023-03-22T04:31:08.091Z,10.07
2023-03-22T04:36:22.918Z,9.89
2023-03-22T04:41:44.892Z,9.75
2023-03-22T04:46:46.641Z,9.45
2023-03-22T04:51:49.131Z,9.25
2023-03-22T04:57:13.620Z,9.14
2023-03-22T05:02:20.467Z,9.09
2023-03-22T05:07:23.378Z,9.18
2023-03-22T05:12:29.070Z,9.29
2023-03-22T05:17:34.455Z,9.58
2023-03-22T05:22:37.385Z,9.54
2023-03-22T05:27:39.274Z,9.63
2023-03-22T05:33:00.117Z,9.37
2023-03-22T05:38:03.099Z,9.34
2023-03-22T05:43:06.852Z,9.28
2023-03-22T05:48:09.641Z,9.37
2023-03-22T05:53:12.014Z,9.44
2023-03-22T05:58:22.388Z,9.48
2023-03-22T06:03:27.736Z,9.36
2023-03-22T06:08:46.381Z,9.54
2023-03-22T06:13:48.204Z,9.55
2023-03-22T06:18:51.258Z,9.55
2023-03-22T06:23:55.296Z,9.62
2023-03-22T06:28:58.902Z,9.86
2023-03-22T06:34:01.058Z,9.87
2023-03-22T06:39:10.427Z,10.15
2023-03-22T06:44:13.173Z,9.92
2023-03-22T06:49:30.112Z,10.13
2023-03-22T06:54:33.647Z,10.25
2023-03-22T06:59:35.337Z,10.47
2023-03-22T07:04:37.662Z,10.61
2023-03-22T07:09:40.191Z,10.51
2023-03-22T07:14:42.019Z,11.08
2023-03-22T07:20:03.992Z,11.43
2023-03-22T07:25:06.558Z,11.42
2023-03-22T07:30:09.844Z,11.48
2023-03-22T07:35:16.778Z,11.57
2023-03-22T07:40:19.701Z,11.70
2023-03-22T07:45:22.929Z,11.95
2023-03-22T07:50:43.607Z,12.38
2023-03-22T07:55:45.259Z,12.42
2023-03-22T08:00:47.075Z,12.79
2023-03-22T08:06:11.320Z,13.01
2023-03-22T08:11:13.589Z,13.18
2023-03-22T08:16:15.370Z,13.25
2023-03-22T08:21:17.209Z,13.37
2023-03-22T08:26:22.963Z,13.55
2023-03-22T08:31:27.144Z,13.68
2023-03-22T08:36:28.953Z,13.87
2023-03-22T08:41:35.217Z,14.03
2023-03-22T08:46:36.869Z,14.19
2023-03-22T08:51:39.386Z,14.36
2023-03-22T08:56:49.284Z,14.60
2023-03-22T09:02:14.088Z,14.97
2023-03-22T09:07:17.282Z,15.27
2023-03-22T09:12:22.721Z,15.42
2023-03-22T09:17:24.961Z,15.67
2023-03-22T09:22:26.949Z,15.96
2023-03-22T09:27:28.819Z,16.11
2023-03-22T09:32:31.087Z,16.36
2023-03-22T09:37:36.577Z,16.63
2023-03-22T09:42:51.401Z,16.60
2023-03-22T09:47:55.765Z,16.66
2023-03-22T09:52:58.749Z,16.93
2023-03-22T11:19:57.605Z,19.62
2023-03-22T11:36:05.113Z,19.42
2023-03-22T11:41:11.333Z,19.36
2023-03-22T11:46:13.021Z,19.24
2023-03-22T11:51:20.617Z,19.26
2023-03-22T11:56:28.468Z,19.40
2023-03-22T12:01:39.013Z,19.63
2023-03-22T12:06:46.066Z,19.74
2023-03-22T12:22:38.933Z,19.80
2023-03-22T12:27:45.897Z,19.91
2023-03-22T12:33:02.883Z,20.01
